Time;durP1;ratioP1;P1;durP2;ratioP2;P2;SDS_P1;SDS_P2;PMS_P1;PMS_P2;Temp;Humidity;BMP_temperature;BMP_pressure;BME280_temperature;BME280_humidity;BME280_pressure;Samples;Min_cycle;Max_cycle;Signal;HPM_P1;HPM_P2
2021/04/13 07:30:36;;;;;;;;;;;;;;;;;;5004960;23;19926;-95
2021/04/13 07:44:22;;;;;;;;;;;;;;;;;;5987246;23;20718;-96
2021/04/13 07:47:09;;;;;;;;;;;;;;;;;;5028045;28;19925;-94
2021/04/13 07:49:41;;;;;;;;;;;;;;;;;;5037737;28;19920;-96
2021/04/13 07:52:17;;;;;;;;;;;;;;;;;;5019301;28;19922;-95
2021/04/13 07:54:53;;;;;;;;;;;;;;;;;;5039088;28;19897;-95
2021/04/13 08:03:05;;;;;;;;;;;;;;;;;;5042885;28;19917;-96
2021/04/13 08:05:51;;;;;;;;;;;;;;;;;;5034634;28;19906;-95
2021/04/13 08:08:24;;;;;;;;;;;;;;;;;;5037547;28;19914;-95
2021/04/13 08:11:10;;;;;;;;;;;;;;;;;;5044389;28;19929;-96
2021/04/13 08:13:41;;;;;;;;;;;;;;;;;;5044263;28;19929;-94
2021/04/13 08:21:33;;;;;;;;;;;;;;;;;;5074898;23;20000;-95
2021/04/13 08:24:14;;;;;;;;;;;;;;;;;;5039010;28;19921;-95
2021/04/13 08:26:44;;;;;;;;;;;;;;;;;;5027599;28;19929;-94
2021/04/13 08:53:39;;;;;;;;;;;;;;;;;;5648463;23;19988;-82
2021/04/13 09:33:53;;;;;;;;;;;;;;;;;;5080319;23;19960;-89
2021/04/13 09:36:19;;;;;;;;;;;;;;;;;;4999631;28;19921;-88
2021/04/13 09:38:46;;;;;;;;;;;;;;;;;;4999967;28;19992;-90
2021/04/13 10:05:44;;;;;;;;;;;;;;;;;;5103385;23;20469;-87
2021/04/13 10:08:14;;;;;;;;;;;;;;;;;;5022928;28;19985;-89
2021/04/13 10:10:42;;;;;;;;;;;;;;;;;;4971315;28;19928;-86
2021/04/13 10:13:08;;;;;;;;;;;;;;;;;;4976486;28;19922;-89
2021/04/13 10:15:34;;;;;;;;;;;;;;;;;;4980777;28;19956;-89
2021/04/13 10:18:16;;;;;;;;;;;;;;;;;;4979767;28;20008;-92
2021/04/13 10:20:42;;;;;;;;;;;;;;;;;;4985261;28;19996;-91
2021/04/13 10:23:08;;;;;;;;;;;;;;;;;;4981310;28;19913;-89
2021/04/13 10:25:34;;;;;;;;;;;;;;;;;;4996855;28;20003;-88
2021/04/13 10:28:00;;;;;;;;;;;;;;;;;;4995215;28;19953;-84
2021/04/13 11:03:14;;;;;;;;;;;;;;;;;;4997699;28;19970;-85
2021/04/13 11:08:34;;;;;;;;;;;;;;;;;;4969175;28;19929;-85
2021/04/13 11:11:02;;;;;;;;;;;;;;;;;;4950911;28;19915;-85
2021/04/13 11:13:40;;;;;;;;;;;;;;;;;;4946221;28;19918;-86
2021/04/13 11:16:06;;;;;;;;;;;;;;;;;;4951949;28;19922;-85
2021/04/13 11:18:32;;;;;;;;;;;;;;;;;;4948685;28;19918;-86
2021/04/13 11:20:59;;;;;;;;;;;;;;;;;;4954188;28;20013;-86
2021/04/13 11:23:25;;;;;;;;;;;;;;;;;;4946118;28;19918;-84
2021/04/13 11:25:51;;;;;;;;;;;;;;;;;;4950730;28;19941;-83
2021/04/13 11:28:20;;;;;;;;;;;;;;;;;;4958494;28;19921;-85
2021/04/13 11:30:49;;;;;;;;;;;;;;;;;;4986442;28;19914;-83
2021/04/13 11:33:20;;;;;;;;;;;;;;;;;;4992920;28;19918;-83
2021/04/13 11:36:01;;;;;;;;;;;;;;;;;;4967402;28;19941;-85
2021/04/13 11:44:07;;;;;;;;;;;;;;;;;;5084402;23;20051;-95
2021/04/13 12:43:21;;;;;;;;;;;;;;;;;;5466722;23;19937;-94
